Time;durP1;ratioP1;P1;durP2;ratioP2;P2;SDS_P1;SDS_P2;PMS_P1;PMS_P2;Temp;Humidity;BMP_temperature;BMP_pressure;BME280_temperature;BME280_humidity;BME280_pressure;Samples;Min_cycle;Max_cycle;Signal;HPM_P1;HPM_P2
2023/02/17 00:02:19;;;;;;;25.00;11.00;;;;;;;5.73;52.55;100981.88;108272;1286;22022;-61
2023/02/17 00:04:45;;;;;;;24.80;12.70;;;;;;;5.75;52.94;100978.25;108216;1286;22000;-61
2023/02/17 00:07:11;;;;;;;24.20;11.90;;;;;;;5.73;52.79;100977.02;108252;1286;22043;-65
2023/02/17 00:09:37;;;;;;;18.30;9.70;;;;;;;5.65;53.83;100978.09;108267;1286;22026;-61
2023/02/17 00:12:03;;;;;;;28.90;13.60;;;;;;;5.67;53.46;100973.59;108268;1286;22004;-65
2023/02/17 00:14:33;;;;;;;23.90;12.70;;;;;;;5.69;52.81;100973.80;107509;1286;1003049;-61
2023/02/17 00:16:59;;;;;;;23.30;12.10;;;;;;;5.71;52.61;100969.48;108170;1286;22002;-64
2023/02/17 00:19:24;;;;;;;22.20;12.90;;;;;;;5.74;52.24;100965.69;108101;1286;22458;-64
2023/02/17 00:21:57;;;;;;;22.60;11.30;;;;;;;5.70;52.34;100961.98;108197;1286;22015;-66
2023/02/17 00:24:24;;;;;;;19.00;10.20;;;;;;;5.62;52.52;100959.40;108137;1286;21989;-61
2023/02/17 00:26:51;;;;;;;18.90;11.30;;;;;;;5.59;52.54;100956.73;108316;1286;21997;-65
2023/02/17 00:29:16;;;;;;;22.00;11.00;;;;;;;5.59;52.69;100950.81;107490;1286;1002425;-65
2023/02/17 00:31:43;;;;;;;18.70;9.50;;;;;;;5.58;52.66;100947.48;108266;1286;21988;-65
2023/02/17 00:34:09;;;;;;;17.80;10.00;;;;;;;5.55;52.50;100939.59;108162;1286;21985;-65
2023/02/17 00:36:35;;;;;;;16.70;10.50;;;;;;;5.52;52.39;100935.73;108207;1286;21996;-62
2023/02/17 00:39:00;;;;;;;21.20;11.20;;;;;;;5.52;52.58;100933.63;108248;1286;21994;-65
2023/02/17 00:41:27;;;;;;;20.30;10.90;;;;;;;5.56;52.76;100932.30;108308;1286;21989;-61
2023/02/17 00:43:52;;;;;;;21.30;11.20;;;;;;;5.54;52.86;100930.20;108260;1286;22161;-65
2023/02/17 00:46:18;;;;;;;18.30;10.50;;;;;;;5.54;53.59;100927.58;108165;1286;22009;-65
2023/02/17 00:48:46;;;;;;;19.80;10.80;;;;;;;5.56;53.46;100927.09;108135;1276;22024;-65
2023/02/17 00:51:12;;;;;;;22.70;11.40;;;;;;;5.55;54.15;100927.41;108167;1286;23765;-61
2023/02/17 00:53:38;;;;;;;23.20;11.50;;;;;;;5.58;53.58;100925.72;108327;1286;21998;-66
2023/02/17 00:56:04;;;;;;;20.50;10.90;;;;;;;5.54;53.90;100925.48;108207;1286;22098;-65
2023/02/17 00:58:33;;;;;;;19.30;12.10;;;;;;;5.51;54.25;100927.52;108137;1286;22029;-66
2023/02/17 01:00:58;;;;;;;19.40;10.30;;;;;;;5.51;54.37;100925.09;108197;1286;22158;-61
2023/02/17 01:03:25;;;;;;;21.70;11.60;;;;;;;5.50;54.05;100924.91;108147;1286;22024;-63
2023/02/17 01:05:51;;;;;;;19.50;11.30;;;;;;;5.49;53.49;100923.85;108125;1286;22042;-61
2023/02/17 01:08:17;;;;;;;23.20;11.70;;;;;;;5.48;53.20;100921.91;108185;1286;21986;-66
2023/02/17 01:10:44;;;;;;;18.80;10.60;;;;;;;5.50;53.17;100917.42;108204;1286;22001;-65
2023/02/17 01:13:11;;;;;;;19.10;11.60;;;;;;;5.47;52.90;100912.67;108169;1286;21985;-61
2023/02/17 01:15:48;;;;;;;22.10;11.90;;;;;;;5.43;53.27;100907.38;108088;1286;21996;-66
2023/02/17 01:18:15;;;;;;;22.10;12.20;;;;;;;5.35;53.26;100904.98;108071;1288;23052;-66
2023/02/17 01:20:40;;;;;;;21.70;12.00;;;;;;;5.29;53.12;100902.78;108137;1288;23103;-61
2023/02/17 01:23:07;;;;;;;23.70;12.40;;;;;;;5.25;52.91;100899.77;108086;1288;22037;-62
2023/02/17 01:25:39;;;;;;;19.50;11.40;;;;;;;5.24;53.05;100894.00;108162;1288;21989;-66
2023/02/17 01:28:13;;;;;;;23.90;13.70;;;;;;;5.21;53.16;100892.39;108167;1288;21993;-61
2023/02/17 01:30:39;;;;;;;29.20;15.00;;;;;;;5.20;53.36;100892.37;108064;1288;22034;-65
2023/02/17 01:33:05;;;;;;;23.60;12.30;;;;;;;5.24;53.24;100893.13;108173;1288;22033;-65
2023/02/17 01:35:32;;;;;;;22.50;12.50;;;;;;;5.25;52.89;100891.41;108163;1287;21994;-61
2023/02/17 01:37:58;;;;;;;21.40;12.60;;;;;;;5.26;52.79;100887.93;108164;1288;21995;-66
2023/02/17 01:40:24;;;;;;;22.80;12.40;;;;;;;5.25;53.08;100887.74;108155;1288;22000;-65
2023/02/17 01:42:50;;;;;;;20.90;12.20;;;;;;;5.26;52.76;100888.47;108188;1286;22055;-61
2023/02/17 01:45:29;;;;;;;23.80;13.90;;;;;;;5.29;52.79;100887.82;108114;1286;22024;-65
2023/02/17 01:48:02;;;;;;;25.10;13.30;;;;;;;5.27;53.07;100889.00;108068;1288;23736;-61
2023/02/17 01:50:43;;;;;;;26.80;15.10;;;;;;;5.25;53.09;100889.84;108199;1286;21989;-66
2023/02/17 01:53:09;;;;;;;23.70;13.70;;;;;;;5.26;52.86;100892.11;108316;1286;22037;-60
2023/02/17 01:55:36;;;;;;;22.80;13.30;;;;;;;5.28;52.89;100890.94;108132;1286;21992;-61
2023/02/17 01:58:02;;;;;;;25.70;13.80;;;;;;;5.32;52.91;100887.35;107399;1286;1003119;-66
2023/02/17 02:00:28;;;;;;;24.80;13.60;;;;;;;5.36;52.81;100888.98;108199;1286;22027;-61
2023/02/17 02:02:53;;;;;;;22.70;13.40;;;;;;;5.39;52.97;100888.33;108004;1286;22014;-65
2023/02/17 02:05:20;;;;;;;23.80;12.90;;;;;;;5.41;53.05;100884.36;108314;1286;21986;-60
2023/02/17 02:07:46;;;;;;;27.10;14.30;;;;;;;5.42;52.88;100883.52;107521;1286;1002519;-62
2023/02/17 02:10:13;;;;;;;24.20;14.40;;;;;;;5.44;52.71;100881.99;108119;1288;21992;-65
2023/02/17 02:12:39;;;;;;;28.50;15.10;;;;;;;5.47;52.52;100882.04;108067;1288;21995;-66
2023/02/17 02:15:08;;;;;;;24.60;14.20;;;;;;;5.47;52.69;100880.11;108154;1288;23773;-66
2023/02/17 02:17:46;;;;;;;23.80;13.50;;;;;;;5.44;52.52;100879.54;108063;1288;23061;-66
2023/02/17 02:20:17;;;;;;;25.00;13.60;;;;;;;5.41;52.34;100879.32;108145;1286;22048;-61
2023/02/17 02:22:59;;;;;;;28.00;15.10;;;;;;;5.39;52.22;100873.02;108138;1288;22003;-66
2023/02/17 02:25:46;;;;;;;20.90;12.30;;;;;;;5.41;52.07;100872.00;108142;1288;21992;-61
2023/02/17 02:28:12;;;;;;;24.30;12.90;;;;;;;5.40;52.18;100874.26;108155;1287;21995;-60
2023/02/17 02:30:40;;;;;;;23.80;12.90;;;;;;;5.37;52.16;100872.64;108221;1287;21970;-61
2023/02/17 02:33:29;;;;;;;27.10;15.40;;;;;;;5.32;52.10;100873.77;108218;1286;21976;-66
2023/02/17 02:36:15;;;;;;;22.80;14.00;;;;;;;5.29;52.17;100873.73;108193;1287;21992;-66
2023/02/17 02:38:45;;;;;;;24.30;13.00;;;;;;;5.28;52.08;100873.71;108233;1287;21993;-65
2023/02/17 02:41:14;;;;;;;42.50;23.50;;;;;;;5.24;52.09;100869.46;108172;1288;21992;-66
2023/02/17 02:43:40;;;;;;;38.20;21.20;;;;;;;5.21;52.04;100866.45;108164;1287;22007;-66
2023/02/17 02:46:06;;;;;;;32.90;19.40;;;;;;;5.17;52.25;100862.90;108175;1288;22658;-65
2023/02/17 02:48:32;;;;;;;32.40;18.20;;;;;;;5.16;52.21;100859.23;108246;1287;21989;-65
2023/02/17 02:51:12;;;;;;;28.90;16.50;;;;;;;5.14;52.47;100862.14;108244;1287;21961;-65
2023/02/17 02:53:51;;;;;;;26.90;15.60;;;;;;;5.11;52.46;100863.82;108203;1286;21995;-61
2023/02/17 02:56:39;;;;;;;23.40;14.40;;;;;;;5.12;52.51;100865.77;108170;1287;21998;-60
2023/02/17 02:59:44;;;;;;;23.60;13.90;;;;;;;5.09;52.90;100885.02;108333;1287;22058;-65
2023/02/17 03:02:55;;;;;;;23.90;14.60;;;;;;;4.99;52.98;100876.32;107421;1287;1003183;-66
2023/02/17 03:05:28;;;;;;;25.30;13.80;;;;;;;4.91;53.16;100873.91;108082;1286;22046;-66
2023/02/17 03:08:19;;;;;;;26.20;14.30;;;;;;;4.85;53.08;100870.48;108202;1287;22040;-60
2023/02/17 03:10:47;;;;;;;30.30;16.30;;;;;;;4.83;53.21;100868.38;108210;1287;21998;-64
2023/02/17 03:13:13;;;;;;;26.00;15.10;;;;;;;4.83;53.11;100864.20;108262;1286;22098;-61
2023/02/17 03:15:39;;;;;;;27.70;16.70;;;;;;;4.82;52.64;100863.30;108173;1287;22110;-60
2023/02/17 03:18:05;;;;;;;27.90;15.90;;;;;;;4.81;52.89;100859.13;108180;1287;22030;-62
2023/02/17 03:20:42;;;;;;;28.30;15.30;;;;;;;4.84;52.89;100862.48;108144;1286;22579;-66
2023/02/17 03:23:08;;;;;;;24.20;13.50;;;;;;;4.87;52.51;100864.27;108043;1286;21997;-60
2023/02/17 03:25:34;;;;;;;25.70;14.50;;;;;;;4.88;52.64;100862.03;107351;1286;1003109;-62
2023/02/17 03:28:00;;;;;;;23.20;14.50;;;;;;;4.90;52.79;100859.45;108094;1283;21995;-66
2023/02/17 03:30:26;;;;;;;27.00;15.20;;;;;;;4.95;52.71;100855.54;108149;1287;22006;-66
2023/02/17 03:32:52;;;;;;;26.90;15.70;;;;;;;4.99;52.76;100855.98;108093;1287;23803;-66
2023/02/17 03:35:18;;;;;;;29.90;17.50;;;;;;;5.02;52.88;100859.16;108188;1283;21990;-66
2023/02/17 03:37:44;;;;;;;33.90;17.40;;;;;;;5.03;52.98;100857.09;108079;1286;22003;-66
2023/02/17 03:40:10;;;;;;;29.80;17.70;;;;;;;5.02;53.36;100855.86;107315;1287;1002625;-61
2023/02/17 03:42:36;;;;;;;32.30;18.80;;;;;;;5.00;53.92;100859.98;108052;1287;23084;-66
2023/02/17 03:45:01;;;;;;;30.20;18.50;;;;;;;4.96;54.55;100856.59;108119;1286;22083;-61
2023/02/17 03:47:29;;;;;;;32.10;17.30;;;;;;;4.97;54.34;100851.92;108038;1287;22004;-67
2023/02/17 03:49:55;;;;;;;28.70;17.30;;;;;;;4.99;54.21;100853.20;108043;1286;22002;-61
2023/02/17 03:52:20;;;;;;;28.20;16.60;;;;;;;5.08;53.93;100850.91;108057;1286;23452;-66
2023/02/17 03:54:46;;;;;;;29.70;16.80;;;;;;;5.16;53.83;100848.27;108102;1286;22062;-66
2023/02/17 03:57:12;;;;;;;27.20;15.40;;;;;;;5.20;53.51;100847.32;108058;1284;21996;-63
2023/02/17 03:59:38;;;;;;;25.00;15.10;;;;;;;5.24;53.27;100843.36;108033;1286;21999;-61
2023/02/17 04:02:08;;;;;;;27.60;16.10;;;;;;;5.28;53.12;100839.77;108065;1286;21955;-66
2023/02/17 04:04:35;;;;;;;29.90;16.40;;;;;;;5.34;53.42;100840.73;108055;1285;22032;-61
2023/02/17 04:07:01;;;;;;;28.30;16.80;;;;;;;5.41;53.17;100836.85;108038;1286;22027;-61
2023/02/17 04:09:32;;;;;;;28.30;17.20;;;;;;;5.42;52.79;100839.48;108119;1286;22004;-61
2023/02/17 04:11:57;;;;;;;30.70;17.70;;;;;;;5.38;52.88;100834.20;108072;1286;22100;-65
2023/02/17 04:14:23;;;;;;;32.00;18.20;;;;;;;5.34;53.30;100832.73;108040;1283;22029;-66
2023/02/17 04:16:49;;;;;;;38.70;21.20;;;;;;;5.30;53.46;100830.94;108047;1286;21987;-66
2023/02/17 04:19:15;;;;;;;36.60;20.40;;;;;;;5.30;53.48;100830.23;108065;1286;21993;-66
2023/02/17 04:21:42;;;;;;;37.60;20.70;;;;;;;5.31;53.90;100828.52;108014;1286;21995;-66
2023/02/17 04:24:08;;;;;;;39.30;24.50;;;;;;;5.35;54.13;100831.17;107376;1286;1002539;-61
2023/02/17 04:26:34;;;;;;;37.80;22.80;;;;;;;5.40;54.02;100831.95;108049;1286;22467;-66
2023/02/17 04:29:01;;;;;;;42.10;22.70;;;;;;;5.43;54.32;100833.05;108120;1284;21991;-61
2023/02/17 04:31:27;;;;;;;43.20;24.10;;;;;;;5.46;54.69;100827.38;108066;1286;22110;-61
2023/02/17 04:33:53;;;;;;;48.90;27.60;;;;;;;5.48;54.79;100830.36;108073;1286;22039;-61
2023/02/17 04:36:19;;;;;;;49.20;27.30;;;;;;;5.52;54.58;100832.32;108101;1286;22004;-66
2023/02/17 04:38:46;;;;;;;50.30;27.00;;;;;;;5.54;54.92;100834.44;108221;1286;21992;-61
2023/02/17 04:41:12;;;;;;;48.70;28.10;;;;;;;5.56;55.76;100834.48;108091;1286;22071;-61
2023/02/17 04:43:38;;;;;;;48.50;28.70;;;;;;;5.60;55.85;100832.62;108157;1286;22007;-62
2023/02/17 04:46:05;;;;;;;45.50;27.10;;;;;;;5.63;55.93;100832.31;108141;1286;22103;-66
2023/02/17 04:48:32;;;;;;;42.10;25.80;;;;;;;5.65;56.10;100829.91;108151;1286;22026;-61
2023/02/17 04:50:57;;;;;;;45.00;27.40;;;;;;;5.62;56.66;100829.86;108231;1286;22015;-61
2023/02/17 04:53:23;;;;;;;47.80;27.60;;;;;;;5.55;57.18;100829.40;107388;1286;1003084;-67
2023/02/17 04:55:49;;;;;;;46.60;27.90;;;;;;;5.56;57.05;100834.12;108088;1286;22047;-66
2023/02/17 04:58:15;;;;;;;43.40;25.70;;;;;;;5.57;56.73;100836.92;108185;1286;21992;-67
2023/02/17 05:00:40;;;;;;;48.20;28.50;;;;;;;5.52;57.65;100835.63;107564;1286;1002806;-60
2023/02/17 05:03:06;;;;;;;45.80;28.50;;;;;;;5.51;57.73;100836.48;108180;1286;22022;-60
2023/02/17 05:05:35;;;;;;;48.50;28.40;;;;;;;5.53;57.45;100833.56;108089;1286;21994;-65
2023/02/17 05:08:01;;;;;;;48.60;28.50;;;;;;;5.56;57.43;100834.30;108156;1286;21991;-66
2023/02/17 05:10:29;;;;;;;51.00;28.40;;;;;;;5.59;57.16;100832.27;108173;1286;24330;-62
2023/02/17 05:12:55;;;;;;;50.90;29.10;;;;;;;5.61;57.39;100834.02;108142;1286;22037;-62
2023/02/17 05:15:24;;;;;;;54.90;29.50;;;;;;;5.66;56.92;100834.63;108145;1286;21988;-65
2023/02/17 05:17:51;;;;;;;48.30;28.90;;;;;;;5.70;56.89;100832.60;108206;1286;22028;-62
2023/02/17 05:20:17;;;;;;;47.40;28.00;;;;;;;5.73;56.75;100835.61;108097;1286;22044;-66
2023/02/17 05:22:44;;;;;;;47.50;26.90;;;;;;;5.77;56.65;100838.63;108078;1286;21996;-61
2023/02/17 05:25:09;;;;;;;51.50;28.80;;;;;;;5.79;57.18;100838.13;108137;1286;21997;-67
2023/02/17 05:27:37;;;;;;;47.70;27.30;;;;;;;5.81;56.99;100840.59;108139;1286;23647;-66
2023/02/17 05:30:04;;;;;;;48.30;28.80;;;;;;;5.82;56.62;100839.21;108120;1286;21988;-62
2023/02/17 05:32:30;;;;;;;53.10;29.60;;;;;;;5.83;56.77;100840.10;108059;1287;21996;-62
2023/02/17 05:34:56;;;;;;;53.50;29.60;;;;;;;5.84;56.82;100843.61;108001;1286;21995;-66
2023/02/17 05:37:21;;;;;;;52.60;29.80;;;;;;;5.85;56.66;100846.23;108109;1281;21995;-66
2023/02/17 05:39:47;;;;;;;48.30;30.00;;;;;;;5.87;56.45;100853.73;108118;1288;21992;-66
2023/02/17 05:42:13;;;;;;;50.30;29.30;;;;;;;5.91;56.42;100848.93;108116;1283;22025;-66
2023/02/17 05:44:39;;;;;;;54.00;31.20;;;;;;;5.95;56.63;100842.71;108205;1280;22034;-67
2023/02/17 05:47:05;;;;;;;53.80;31.10;;;;;;;5.99;56.70;100851.13;108121;1286;21995;-64
2023/02/17 05:49:31;;;;;;;49.10;30.00;;;;;;;6.03;56.69;100850.16;108131;1286;21990;-62
2023/02/17 05:51:59;;;;;;;49.20;28.30;;;;;;;6.07;56.61;100855.98;108078;1286;21993;-61
2023/02/17 05:54:25;;;;;;;47.00;28.30;;;;;;;6.10;56.67;100856.55;108218;1277;22174;-62
2023/02/17 05:56:50;;;;;;;51.80;30.50;;;;;;;6.13;57.21;100861.63;107337;1286;1003971;-64
2023/02/17 05:59:18;;;;;;;49.80;27.00;;;;;;;6.18;57.23;100864.83;108142;1276;22086;-61
2023/02/17 06:01:44;;;;;;;53.20;30.10;;;;;;;6.24;57.59;100864.56;108031;1287;21991;-63
2023/02/17 06:04:14;;;;;;;;;;;;;;;6.33;57.59;100865.91;107922;1286;21968;-68
2023/02/17 06:06:40;;;;;;;48.20;27.90;;;;;;;6.40;57.26;100864.95;108119;1286;22040;-68
2023/02/17 06:09:06;;;;;;;47.00;27.20;;;;;;;6.49;57.35;100866.45;108087;1286;22100;-69
2023/02/17 06:11:32;;;;;;;44.10;25.90;;;;;;;6.55;57.39;100868.10;108062;1286;21993;-68
2023/02/17 06:13:58;;;;;;;47.20;29.30;;;;;;;6.59;57.83;100868.85;108087;1286;21993;-68
2023/02/17 06:16:25;;;;;;;45.60;27.80;;;;;;;6.67;57.30;100874.34;108096;1283;22007;-62
2023/02/17 06:18:51;;;;;;;48.30;29.00;;;;;;;6.74;57.41;100873.02;108077;1286;22000;-60
2023/02/17 06:21:17;;;;;;;46.00;27.10;;;;;;;6.81;57.95;100872.77;108097;1286;22000;-67
2023/02/17 06:23:42;;;;;;;49.60;27.20;;;;;;;6.89;58.24;100872.48;108109;1286;22042;-65
2023/02/17 06:26:08;;;;;;;44.10;25.60;;;;;;;7.00;58.45;100876.97;107950;1286;21994;-61
2023/02/17 06:28:34;;;;;;;41.60;25.40;;;;;;;7.12;58.85;100878.33;108188;1286;21989;-67
2023/02/17 06:30:59;;;;;;;42.00;26.60;;;;;;;7.26;58.72;100877.22;108095;1286;22048;-67
2023/02/17 06:33:25;;;;;;;39.90;23.40;;;;;;;7.39;58.14;100875.94;108058;1286;22451;-67
2023/02/17 06:35:51;;;;;;;46.10;26.40;;;;;;;7.49;57.98;100886.15;108107;1286;21971;-67
2023/02/17 06:38:17;;;;;;;41.90;24.90;;;;;;;7.58;58.17;100892.34;108126;1286;21998;-66
2023/02/17 06:40:43;;;;;;;40.50;25.40;;;;;;;7.67;58.30;100886.65;108162;1286;22002;-66
2023/02/17 06:43:09;;;;;;;40.20;23.70;;;;;;;7.81;58.16;100883.96;108063;1286;21989;-66
2023/02/17 06:45:34;;;;;;;39.30;24.40;;;;;;;7.95;58.18;100886.14;108142;1286;21997;-67
2023/02/17 06:48:00;;;;;;;35.10;22.20;;;;;;;8.06;57.98;100886.58;108069;1286;22170;-67
2023/02/17 06:50:26;;;;;;;38.10;24.60;;;;;;;8.16;57.88;100884.89;108122;1286;21954;-67
2023/02/17 06:52:52;;;;;;;44.50;26.10;;;;;;;8.26;57.50;100885.80;108089;1286;22030;-63
2023/02/17 06:55:18;;;;;;;36.40;22.10;;;;;;;8.35;57.24;100887.79;108044;1286;22033;-62
2023/02/17 06:57:44;;;;;;;37.80;22.50;;;;;;;8.43;57.04;100887.13;108074;1286;21992;-62
2023/02/17 07:00:10;;;;;;;39.10;22.50;;;;;;;8.53;56.98;100886.49;108101;1286;21985;-62
2023/02/17 07:02:37;;;;;;;33.90;21.70;;;;;;;8.64;57.09;100883.39;108188;1285;21998;-67
2023/02/17 07:05:06;;;;;;;35.10;20.80;;;;;;;8.70;57.80;100884.46;107886;1286;387996;-67
2023/02/17 07:07:32;;;;;;;32.70;20.20;;;;;;;8.80;57.44;100879.42;108098;1276;21570;-67
2023/02/17 07:09:58;;;;;;;34.70;19.70;;;;;;;9.00;56.75;100871.59;108179;1286;22004;-67
2023/02/17 07:12:28;;;;;;;33.90;20.50;;;;;;;9.17;56.59;100872.33;108129;1286;22081;-62
2023/02/17 07:14:54;;;;;;;33.10;20.50;;;;;;;9.31;56.59;100872.00;108051;1286;21990;-62
2023/02/17 07:17:19;;;;;;;32.30;18.70;;;;;;;9.43;56.24;100871.64;108120;1286;22459;-67
2023/02/17 07:19:45;;;;;;;36.20;21.00;;;;;;;9.46;55.86;100874.10;108178;1286;21997;-66
2023/02/17 07:22:11;;;;;;;30.10;18.90;;;;;;;9.70;55.65;100879.17;108106;1286;22067;-66
2023/02/17 07:24:37;;;;;;;37.00;20.30;;;;;;;9.86;55.17;100882.33;108097;1286;22025;-66
2023/02/17 07:27:07;;;;;;;38.20;21.30;;;;;;;9.90;54.33;100886.34;108149;1274;22205;-66
2023/02/17 07:29:33;;;;;;;33.10;20.50;;;;;;;9.99;53.94;100883.17;108161;1286;22774;-66
2023/02/17 07:31:59;;;;;;;33.70;19.80;;;;;;;10.09;53.59;100879.81;108186;1286;21980;-67
2023/02/17 07:34:25;;;;;;;33.00;18.20;;;;;;;10.24;53.43;100881.37;108089;1286;21993;-66
2023/02/17 07:36:52;;;;;;;31.30;19.80;;;;;;;10.13;52.89;100878.40;108129;1286;22003;-66
2023/02/17 07:39:18;;;;;;;35.70;19.00;;;;;;;10.25;52.70;100882.06;108077;1286;21999;-61
2023/02/17 07:41:43;;;;;;;31.20;19.70;;;;;;;10.50;53.03;100880.60;108070;1286;21998;-61
2023/02/17 07:44:09;;;;;;;32.10;19.40;;;;;;;10.59;52.52;100879.33;108141;1286;21992;-67
2023/02/17 07:46:35;;;;;;;33.20;19.50;;;;;;;10.86;52.51;100881.66;108203;1286;21992;-66
2023/02/17 07:49:01;;;;;;;32.80;19.60;;;;;;;10.85;52.11;100883.23;108085;1286;21998;-63
2023/02/17 07:51:27;;;;;;;30.70;18.20;;;;;;;10.84;52.18;100885.01;108152;1286;22033;-67
2023/02/17 07:53:53;;;;;;;30.00;18.00;;;;;;;10.92;52.17;100887.77;108111;1286;21970;-66
2023/02/17 07:56:20;;;;;;;33.80;18.80;;;;;;;11.03;51.68;100889.46;108115;1286;22001;-66
2023/02/17 07:58:46;;;;;;;35.20;19.60;;;;;;;11.08;51.24;100886.27;108304;1286;21999;-62
2023/02/17 08:01:13;;;;;;;36.70;21.00;;;;;;;11.13;50.92;100889.23;108229;1286;21986;-62
2023/02/17 08:03:39;;;;;;;31.50;19.80;;;;;;;11.16;51.18;100886.05;108115;1288;21999;-63
2023/02/17 08:06:14;;;;;;;32.90;20.80;;;;;;;11.24;51.01;100883.02;108060;1286;22456;-67
2023/02/17 08:14:09;;;;;;;33.50;19.10;;;;;;;11.48;51.38;100888.28;108080;1286;21998;-65
2023/02/17 08:16:35;;;;;;;31.50;19.90;;;;;;;11.46;50.96;100890.58;108114;1283;21990;-66
2023/02/17 08:19:01;;;;;;;33.90;20.30;;;;;;;11.46;50.81;100898.67;108161;1286;21994;-66
2023/02/17 08:21:27;;;;;;;35.70;21.80;;;;;;;11.44;50.64;100899.22;108210;1286;21983;-62
2023/02/17 08:23:54;;;;;;;30.90;20.60;;;;;;;11.44;50.77;100899.04;108258;1273;22103;-62
2023/02/17 08:26:19;;;;;;;34.10;20.50;;;;;;;11.50;50.90;100898.45;108189;1286;22010;-66
2023/02/17 08:28:45;;;;;;;37.00;21.50;;;;;;;11.54;50.31;100895.61;108155;1286;22002;-65
2023/02/17 08:31:31;;;;;;;32.80;20.20;;;;;;;11.64;50.38;100892.19;107381;1286;1002509;-66
2023/02/17 08:33:56;;;;;;;31.30;20.30;;;;;;;11.90;50.66;100892.50;108188;1286;21998;-63
2023/02/17 08:36:23;;;;;;;31.10;19.70;;;;;;;12.02;50.29;100895.03;108190;1286;21996;-65
2023/02/17 08:38:52;;;;;;;35.50;21.90;;;;;;;12.08;49.80;100895.52;108158;1286;21995;-66
2023/02/17 08:41:28;;;;;;;33.90;20.90;;;;;;;12.16;49.14;100889.10;108119;1286;21995;-65
2023/02/17 08:43:56;;;;;;;33.90;21.30;;;;;;;12.30;49.00;100887.71;108124;1288;23732;-62
2023/02/17 08:46:21;;;;;;;34.20;21.60;;;;;;;12.42;49.08;100886.52;108133;1288;22001;-66
2023/02/17 08:48:47;;;;;;;37.50;21.70;;;;;;;12.48;49.10;100879.23;108083;1287;22004;-63
2023/02/17 08:51:14;;;;;;;31.70;20.20;;;;;;;12.64;49.58;100874.47;108099;1288;21995;-66
2023/02/17 08:53:40;;;;;;;34.90;21.50;;;;;;;12.82;48.64;100875.80;108183;1286;21995;-66
2023/02/17 08:56:06;;;;;;;33.50;20.00;;;;;;;13.05;48.61;100871.95;108113;1286;21996;-63
2023/02/17 08:58:32;;;;;;;33.00;21.10;;;;;;;13.29;48.66;100866.84;108183;1286;21991;-66
2023/02/17 09:01:00;;;;;;;34.10;20.80;;;;;;;13.30;47.49;100865.42;108127;1286;21997;-64
2023/02/17 09:03:27;;;;;;;34.40;21.70;;;;;;;13.34;46.76;100863.23;108107;1276;21993;-61
2023/02/17 09:05:55;;;;;;;33.40;21.40;;;;;;;13.50;47.26;100864.59;108128;1286;21998;-65
2023/02/17 09:08:22;;;;;;;32.00;21.70;;;;;;;13.62;46.30;100864.22;108147;1286;22040;-62
2023/02/17 09:10:48;;;;;;;32.60;21.00;;;;;;;13.83;46.56;100865.63;108202;1286;22064;-65
2023/02/17 09:13:16;;;;;;;33.30;21.40;;;;;;;13.96;45.33;100868.73;108104;1288;22466;-64
2023/02/17 09:15:42;;;;;;;35.60;21.90;;;;;;;14.17;45.95;100866.05;108116;1286;21994;-61
2023/02/17 09:18:12;;;;;;;33.00;20.40;;;;;;;14.38;46.53;100861.02;108097;1286;22163;-66
2023/02/17 09:20:39;;;;;;;29.60;19.70;;;;;;;14.53;46.36;100858.61;108144;1286;21989;-62
2023/02/17 09:23:05;;;;;;;33.20;21.20;;;;;;;14.60;45.10;100857.95;108112;1286;21997;-66
2023/02/17 09:25:31;;;;;;;32.60;21.80;;;;;;;14.74;45.78;100849.54;107377;1286;1002308;-62
2023/02/17 09:27:57;;;;;;;34.40;21.50;;;;;;;14.94;45.93;100847.51;108157;1286;21988;-62
2023/02/17 09:30:23;;;;;;;33.00;22.30;;;;;;;14.94;44.11;100849.45;108077;1286;21989;-63
2023/02/17 09:32:49;;;;;;;33.10;22.10;;;;;;;14.82;43.38;100848.66;108128;1286;22642;-66
2023/02/17 09:35:18;;;;;;;31.00;20.00;;;;;;;14.87;43.65;100843.27;108164;1286;22046;-63
2023/02/17 09:37:45;;;;;;;34.40;21.80;;;;;;;14.87;43.40;100839.17;108108;1286;22004;-65
2023/02/17 09:40:19;;;;;;;30.20;21.30;;;;;;;14.95;44.01;100837.77;108170;1286;22005;-63
2023/02/17 09:42:46;;;;;;;35.30;23.20;;;;;;;14.91;43.36;100838.73;108085;1288;22082;-65
2023/02/17 09:45:21;;;;;;;32.70;21.80;;;;;;;14.84;42.88;100833.23;107890;1288;21988;-65
2023/02/17 09:47:52;;;;;;;33.10;22.00;;;;;;;14.76;43.02;100832.52;108136;1288;22105;-65
2023/02/17 09:50:26;;;;;;;;;;;;;;;14.82;43.79;100831.88;108078;1283;21976;-65
2023/02/17 09:52:56;;;;;;;30.40;20.80;;;;;;;15.03;44.34;100830.86;108155;1286;22195;-66
2023/02/17 09:55:51;;;;;;;32.70;22.00;;;;;;;15.09;43.67;100834.09;108120;1283;21995;-66
2023/02/17 09:58:22;;;;;;;32.80;22.20;;;;;;;15.12;43.38;100827.66;108046;1286;21992;-65
2023/02/17 10:00:55;;;;;;;31.40;21.40;;;;;;;15.28;43.89;100820.19;108061;1286;21999;-66
2023/02/17 10:03:39;;;;;;;33.30;20.50;;;;;;;15.33;42.85;100820.95;108256;1286;22620;-64
2023/02/17 10:06:15;;;;;;;33.90;21.40;;;;;;;15.40;43.04;100814.41;108133;1286;23715;-64
2023/02/17 10:09:06;;;;;;;33.10;21.70;;;;;;;15.51;43.10;100813.79;108144;1288;23026;-66
2023/02/17 10:11:47;;;;;;;31.10;20.90;;;;;;;15.49;42.41;100808.70;108033;1286;21997;-66
2023/02/17 10:14:17;;;;;;;34.30;22.00;;;;;;;15.40;42.33;100804.87;107469;1286;1002317;-65
2023/02/17 10:16:48;;;;;;;32.60;21.60;;;;;;;15.53;42.65;100803.83;108086;1286;21993;-65
2023/02/17 10:19:28;;;;;;;32.00;21.70;;;;;;;15.66;42.70;100802.23;108038;1288;22460;-64
2023/02/17 10:22:07;;;;;;;29.20;20.70;;;;;;;15.89;42.75;100800.75;107735;1288;22928;-65
2023/02/17 10:24:33;;;;;;;35.10;23.20;;;;;;;15.92;41.37;100798.05;108046;1288;22005;-66
2023/02/17 10:27:17;;;;;;;39.40;22.00;;;;;;;16.04;41.37;100793.28;108027;1288;22021;-63
2023/02/17 10:30:00;;;;;;;35.20;22.70;;;;;;;16.02;40.55;100792.11;108091;1286;22000;-62
2023/02/17 10:32:26;;;;;;;36.90;23.00;;;;;;;16.05;40.26;100788.11;108117;1286;23693;-63
2023/02/17 10:35:14;;;;;;;34.90;23.30;;;;;;;16.22;41.22;100785.50;108102;1286;22000;-67
2023/02/17 10:37:48;;;;;;;34.60;23.30;;;;;;;16.22;40.44;100786.93;108139;1286;23724;-66
2023/02/17 10:40:25;;;;;;;37.60;24.10;;;;;;;16.16;40.59;100790.27;108268;1286;21997;-67
2023/02/17 10:42:53;;;;;;;32.30;22.10;;;;;;;16.16;40.46;100789.77;108178;1286;21998;-63
2023/02/17 10:45:34;;;;;;;36.10;23.40;;;;;;;16.10;39.83;100782.49;108222;1286;21994;-67
2023/02/17 10:48:24;;;;;;;37.20;25.00;;;;;;;15.85;39.74;100783.54;108122;1286;22008;-63
2023/02/17 10:50:50;;;;;;;;;;;;;;;16.03;40.47;100780.40;108166;1286;21979;-67
2023/02/17 10:53:21;;;;;;;37.60;24.60;;;;;;;16.09;40.04;100779.70;107986;1285;22057;-67
2023/02/17 10:55:56;;;;;;;;;;;;;;;16.12;39.65;100775.70;108101;1287;21980;-63
2023/02/17 10:58:53;;;;;;;37.70;26.00;;;;;;;16.23;39.96;100780.17;108105;1287;22156;-67
2023/02/17 11:01:19;;;;;;;37.60;25.20;;;;;;;16.46;40.71;100777.35;107969;1287;21995;-63
2023/02/17 11:03:45;;;;;;;41.60;26.60;;;;;;;16.48;39.97;100773.40;107973;1287;22159;-65
2023/02/17 11:06:17;;;;;;;40.90;26.60;;;;;;;16.43;39.72;100774.98;108078;1286;21990;-66
2023/02/17 11:08:49;;;;;;;;;;;;;;;16.30;39.38;100779.81;108142;1286;21980;-63
2023/02/17 11:11:29;;;;;;;37.90;25.30;;;;;;;16.18;39.17;100781.36;108120;1286;21992;-63
2023/02/17 11:14:05;;;;;;;39.00;25.90;;;;;;;16.05;39.48;100783.69;108233;1286;21997;-66
2023/02/17 11:16:36;;;;;;;44.20;27.30;;;;;;;16.15;39.47;100778.09;108118;1286;22093;-67
2023/02/17 11:19:04;;;;;;;43.80;29.40;;;;;;;16.18;38.98;100773.77;108160;1286;22000;-63
2023/02/17 11:21:32;;;;;;;37.50;26.30;;;;;;;16.29;39.48;100770.42;108180;1286;21996;-65